Time;durP1;ratioP1;P1;durP2;ratioP2;P2;SDS_P1;SDS_P2;PMS_P1;PMS_P2;Temp;Humidity;BMP_temperature;BMP_pressure;BME280_temperature;BME280_humidity;BME280_pressure;Samples;Min_cycle;Max_cycle;Signal;HPM_P1;HPM_P2
2021/05/29 00:02:18;;;;;;;5.00;2.38;;;13.60;99.90;;;;;;5110269;28;20110;-72
2021/05/29 00:04:44;;;;;;;4.85;3.13;;;13.60;99.90;;;;;;5111116;28;20050;-72
2021/05/29 00:07:10;;;;;;;3.58;2.28;;;13.60;99.90;;;;;;5110286;28;20035;-72
2021/05/29 00:09:37;;;;;;;4.43;2.47;;;13.60;99.90;;;;;;5109785;28;20043;-72
2021/05/29 00:12:05;;;;;;;5.32;2.30;;;13.60;99.90;;;;;;5097655;28;20093;-73
2021/05/29 00:14:33;;;;;;;4.97;2.17;;;13.50;99.90;;;;;;5090635;28;20130;-73
2021/05/29 00:16:59;;;;;;;2.80;2.33;;;13.50;99.90;;;;;;5089500;28;20035;-77
2021/05/29 00:19:24;;;;;;;3.53;2.13;;;13.50;99.90;;;;;;5088060;28;20078;-73
2021/05/29 00:21:50;;;;;;;6.05;2.30;;;13.50;99.90;;;;;;5089039;28;20122;-73
2021/05/29 00:24:16;;;;;;;8.07;2.42;;;13.30;99.90;;;;;;5087977;28;20020;-72
2021/05/29 00:26:41;;;;;;;3.95;2.08;;;13.20;99.90;;;;;;5088892;28;20483;-72
2021/05/29 00:29:07;;;;;;;3.90;2.03;;;13.30;99.90;;;;;;5087821;28;20032;-73
2021/05/29 00:31:33;;;;;;;3.03;1.95;;;13.20;99.90;;;;;;5089806;28;20028;-72
2021/05/29 00:33:58;;;;;;;3.83;2.10;;;13.20;99.90;;;;;;5089510;28;20043;-81
2021/05/29 00:36:24;;;;;;;2.58;2.30;;;13.10;99.90;;;;;;5090051;28;20051;-72
2021/05/29 00:38:50;;;;;;;5.65;2.63;;;13.00;99.90;;;;;;5089860;28;20028;-73
2021/05/29 00:41:17;;;;;;;3.05;2.15;;;13.00;99.90;;;;;;5088092;28;20035;-72
2021/05/29 00:43:43;;;;;;;3.15;2.00;;;13.00;99.90;;;;;;5088293;28;20449;-72
2021/05/29 00:46:09;;;;;;;4.85;2.38;;;13.00;99.90;;;;;;5087701;28;20119;-72
2021/05/29 00:48:36;;;;;;;4.47;2.17;;;12.90;99.90;;;;;;5090048;28;20093;-72
2021/05/29 00:51:03;;;;;;;5.82;4.38;;;12.70;99.90;;;;;;5088006;28;20028;-73
2021/05/29 00:53:31;;;;;;;2.55;2.10;;;12.70;99.90;;;;;;5090086;28;20098;-73
2021/05/29 00:55:58;;;;;;;5.45;2.17;;;12.70;99.90;;;;;;5088591;28;20021;-71
2021/05/29 00:58:26;;;;;;;2.10;2.00;;;12.60;99.90;;;;;;5089919;28;20071;-71
2021/05/29 01:00:52;;;;;;;5.53;2.85;;;12.60;99.90;;;;;;5088576;28;20027;-72
2021/05/29 01:03:17;;;;;;;4.95;3.10;;;12.70;99.90;;;;;;5087741;28;20047;-72
2021/05/29 01:05:44;;;;;;;6.10;2.72;;;12.70;99.90;;;;;;5088532;28;20032;-71
2021/05/29 01:08:10;;;;;;;3.65;3.03;;;12.70;99.90;;;;;;5088924;28;20461;-72
2021/05/29 01:10:37;;;;;;;3.72;2.78;;;12.70;99.90;;;;;;5088053;28;20422;-72
2021/05/29 01:13:06;;;;;;;4.55;2.80;;;12.80;99.90;;;;;;5089779;28;20039;-72
2021/05/29 01:15:38;;;;;;;5.68;3.28;;;12.80;99.90;;;;;;5088369;28;20035;-71
2021/05/29 01:18:04;;;;;;;;;;;12.70;99.90;;;;;;5089664;28;20127;-72
2021/05/29 01:20:30;;;;;;;7.38;5.32;;;12.80;99.90;;;;;;5092427;28;20397;-71
2021/05/29 01:22:57;;;;;;;6.15;5.05;;;12.80;99.90;;;;;;5093621;28;20030;-72
2021/05/29 01:25:32;;;;;;;6.63;5.68;;;12.70;99.90;;;;;;5091980;28;20174;-70
2021/05/29 01:28:12;;;;;;;8.38;6.03;;;12.70;99.90;;;;;;5091877;28;20028;-70
2021/05/29 01:30:43;;;;;;;10.60;5.22;;;12.70;99.90;;;;;;5093658;28;20032;-71
2021/05/29 01:33:22;;;;;;;6.83;5.03;;;12.70;99.90;;;;;;5091831;28;20039;-71
2021/05/29 01:35:50;;;;;;;3.85;3.25;;;12.70;99.90;;;;;;5092737;28;20730;-71
2021/05/29 01:38:17;;;;;;;4.82;3.83;;;12.70;99.90;;;;;;5092000;28;20036;-71
2021/05/29 01:40:43;;;;;;;5.18;4.22;;;12.50;99.90;;;;;;5092223;28;20028;-71
2021/05/29 01:43:11;;;;;;;4.57;3.80;;;12.40;99.90;;;;;;5092214;28;20020;-72
2021/05/29 01:45:38;;;;;;;5.55;4.28;;;12.40;99.90;;;;;;5092052;28;20384;-71
2021/05/29 01:48:05;;;;;;;5.65;4.13;;;12.40;99.90;;;;;;5091626;28;20064;-78
2021/05/29 01:50:32;;;;;;;8.10;3.47;;;12.40;99.90;;;;;;5093052;28;20119;-70
2021/05/29 01:53:02;;;;;;;4.28;3.83;;;12.20;99.90;;;;;;5093584;28;20168;-70
2021/05/29 01:55:31;;;;;;;6.97;4.53;;;12.30;99.90;;;;;;5093238;28;20036;-71
2021/05/29 01:57:58;;;;;;;5.18;3.80;;;12.30;99.90;;;;;;5091813;28;20125;-71
2021/05/29 02:00:27;;;;;;;10.75;7.70;;;12.30;99.90;;;;;;5091285;28;20488;-71
2021/05/29 02:02:54;;;;;;;6.35;4.40;;;12.30;99.90;;;;;;5091739;28;20028;-71
2021/05/29 02:05:22;;;;;;;5.00;3.70;;;12.30;99.90;;;;;;5091754;28;20035;-70
2021/05/29 02:07:49;;;;;;;5.57;4.30;;;12.20;99.90;;;;;;5091904;28;20534;-71
2021/05/29 02:10:18;;;;;;;8.77;5.35;;;12.20;99.90;;;;;;5091515;28;20036;-71
2021/05/29 02:12:46;;;;;;;7.65;5.20;;;12.10;99.90;;;;;;5092992;28;20024;-70
2021/05/29 02:15:15;;;;;;;4.80;3.35;;;12.10;99.90;;;;;;5092858;28;20036;-70
2021/05/29 02:17:44;;;;;;;4.25;3.28;;;12.00;99.90;;;;;;5092873;28;20032;-70
2021/05/29 02:20:11;;;;;;;6.47;3.67;;;11.90;99.90;;;;;;5091413;28;20130;-71
2021/05/29 02:22:38;;;;;;;4.10;2.95;;;11.90;99.90;;;;;;5091830;28;20097;-70
2021/05/29 02:25:05;;;;;;;3.97;3.55;;;12.00;99.90;;;;;;5091665;28;20060;-81
2021/05/29 02:27:31;;;;;;;7.25;3.53;;;11.90;99.90;;;;;;5091796;28;20032;-70
2021/05/29 02:29:57;;;;;;;5.72;3.03;;;11.90;99.90;;;;;;5091111;28;20029;-69
2021/05/29 02:32:23;;;;;;;3.90;3.38;;;11.90;99.90;;;;;;5092690;28;20031;-70
2021/05/29 02:34:49;;;;;;;5.45;3.42;;;12.00;99.90;;;;;;5092521;28;20032;-70
2021/05/29 02:37:15;;;;;;;4.20;3.80;;;12.00;99.90;;;;;;5092824;28;20032;-69
2021/05/29 02:39:41;;;;;;;4.13;3.60;;;11.90;99.90;;;;;;5091777;28;20051;-70
2021/05/29 02:42:07;;;;;;;5.07;3.78;;;12.00;99.90;;;;;;5091262;28;20020;-78
2021/05/29 02:44:33;;;;;;;4.30;3.80;;;11.90;99.90;;;;;;5092661;28;20114;-70
2021/05/29 02:46:59;;;;;;;7.28;3.50;;;11.90;99.90;;;;;;5091338;28;20038;-70
2021/05/29 02:49:25;;;;;;;4.50;3.00;;;11.80;99.90;;;;;;5091841;28;20036;-70
2021/05/29 02:51:51;;;;;;;5.55;3.67;;;11.80;99.90;;;;;;5092693;28;20035;-70
2021/05/29 02:54:16;;;;;;;9.45;4.15;;;11.80;99.90;;;;;;5090862;28;20043;-70
2021/05/29 02:56:42;;;;;;;10.48;5.05;;;11.90;99.90;;;;;;5091315;28;20063;-70
2021/05/29 02:59:08;;;;;;;6.18;4.03;;;11.90;99.90;;;;;;5090714;28;20325;-71
2021/05/29 03:01:33;;;;;;;8.90;5.05;;;11.80;99.90;;;;;;5090431;28;20024;-70
2021/05/29 03:03:59;;;;;;;4.55;4.10;;;11.80;99.90;;;;;;5092485;28;20377;-70
2021/05/29 03:06:25;;;;;;;6.15;3.42;;;11.80;99.90;;;;;;5091583;28;20059;-70
2021/05/29 03:08:51;;;;;;;5.55;3.40;;;11.80;99.90;;;;;;5090430;28;20067;-70
2021/05/29 03:11:16;;;;;;;5.53;3.40;;;11.70;99.90;;;;;;5091965;28;20505;-70
2021/05/29 03:13:42;;;;;;;6.63;2.97;;;11.80;99.90;;;;;;5091297;28;20077;-70
2021/05/29 03:16:08;;;;;;;8.75;3.33;;;11.70;99.90;;;;;;5090552;28;20365;-70
2021/05/29 03:18:33;;;;;;;7.78;5.13;;;11.70;99.90;;;;;;5090262;28;20082;-70
2021/05/29 03:20:59;;;;;;;5.28;4.10;;;11.70;99.90;;;;;;5090702;28;20028;-69
2021/05/29 03:23:26;;;;;;;6.50;4.10;;;11.70;99.90;;;;;;5091941;28;20036;-70
2021/05/29 03:25:52;;;;;;;6.85;4.32;;;11.70;99.90;;;;;;5090330;28;20020;-69
2021/05/29 03:28:18;;;;;;;4.13;3.20;;;11.70;99.90;;;;;;5090874;28;20174;-70
2021/05/29 03:30:44;;;;;;;3.15;2.33;;;11.70;99.90;;;;;;5091279;28;20452;-70
2021/05/29 03:33:12;;;;;;;5.75;2.85;;;11.60;99.90;;;;;;5091425;28;20377;-83
2021/05/29 03:35:38;;;;;;;4.78;2.40;;;11.50;99.90;;;;;;5091921;28;20508;-70
2021/05/29 03:38:04;;;;;;;6.25;2.38;;;11.50;99.90;;;;;;5091410;28;20032;-70
2021/05/29 03:40:30;;;;;;;4.85;2.25;;;11.50;99.90;;;;;;5091347;28;20137;-70
2021/05/29 03:42:56;;;;;;;3.25;2.35;;;11.50;99.90;;;;;;5090466;28;20465;-69
2021/05/29 03:45:22;;;;;;;3.97;2.72;;;11.50;99.90;;;;;;5089369;28;20024;-70
2021/05/29 03:47:48;;;;;;;6.00;2.20;;;11.40;99.90;;;;;;5089528;28;20028;-70
2021/05/29 03:50:24;;;;;;;3.97;2.67;;;11.40;99.90;;;;;;5089425;28;20044;-70
2021/05/29 03:52:50;;;;;;;4.22;2.53;;;11.40;99.90;;;;;;5091787;28;20020;-70
2021/05/29 03:55:17;;;;;;;3.97;2.85;;;11.50;99.90;;;;;;5089962;28;20527;-70
2021/05/29 03:57:44;;;;;;;3.67;2.83;;;11.40;99.90;;;;;;5091550;28;20089;-71
2021/05/29 04:00:12;;;;;;;4.18;2.58;;;11.40;99.90;;;;;;5090950;28;20457;-77
2021/05/29 04:02:39;;;;;;;3.42;2.95;;;11.40;99.90;;;;;;5091388;28;20085;-70
2021/05/29 04:05:06;;;;;;;3.45;2.53;;;11.50;99.90;;;;;;5091594;28;20035;-70
2021/05/29 04:07:32;;;;;;;3.53;3.08;;;11.60;99.90;;;;;;5089559;28;20027;-70
2021/05/29 04:09:58;;;;;;;3.10;2.30;;;11.70;99.90;;;;;;5089376;28;20039;-70
2021/05/29 04:12:24;;;;;;;2.65;2.38;;;11.70;99.90;;;;;;5089490;28;20039;-71
2021/05/29 04:14:49;;;;;;;3.20;2.35;;;11.70;99.90;;;;;;5089637;28;20372;-71
2021/05/29 04:17:15;;;;;;;4.20;2.60;;;11.70;99.90;;;;;;5088747;28;20059;-71
2021/05/29 04:19:41;;;;;;;2.88;2.22;;;11.70;99.90;;;;;;5088681;28;20052;-70
2021/05/29 04:22:06;;;;;;;5.45;2.75;;;11.70;99.90;;;;;;5088887;28;20036;-71
2021/05/29 04:24:32;;;;;;;3.25;2.55;;;11.70;99.90;;;;;;5088939;28;20020;-71
2021/05/29 04:26:58;;;;;;;3.25;2.70;;;11.70;99.90;;;;;;5089052;28;20036;-70
2021/05/29 04:29:23;;;;;;;4.18;2.38;;;11.80;99.90;;;;;;5088464;28;20111;-70
2021/05/29 04:31:49;;;;;;;25.83;4.80;;;11.70;99.90;;;;;;5089812;28;20103;-70
2021/05/29 04:34:15;;;;;;;4.20;2.58;;;11.80;99.90;;;;;;5087850;28;20062;-71
2021/05/29 04:36:40;;;;;;;2.97;1.70;;;11.80;99.90;;;;;;5088330;28;20165;-70
2021/05/29 04:39:06;;;;;;;3.03;1.88;;;11.90;99.90;;;;;;5088842;28;20303;-70
2021/05/29 04:41:32;;;;;;;5.63;1.90;;;11.90;99.90;;;;;;5089370;28;20423;-71
2021/05/29 04:43:58;;;;;;;2.55;2.08;;;12.00;99.90;;;;;;5088815;28;20397;-70
2021/05/29 04:46:23;;;;;;;3.00;2.00;;;12.10;99.90;;;;;;5089835;28;20107;-70
2021/05/29 04:48:49;;;;;;;1.92;1.75;;;12.20;99.90;;;;;;5088926;28;20042;-71
2021/05/29 04:51:15;;;;;;;5.43;1.73;;;12.30;99.90;;;;;;5090205;28;20028;-71
2021/05/29 04:53:46;;;;;;;2.25;1.55;;;12.40;99.90;;;;;;5090102;28;20031;-70
2021/05/29 04:56:13;;;;;;;6.03;2.88;;;12.40;99.90;;;;;;5092562;28;20343;-78
2021/05/29 04:58:39;;;;;;;4.55;2.38;;;12.50;99.90;;;;;;5092940;28;20119;-70
2021/05/29 05:01:09;;;;;;;7.20;2.42;;;12.60;99.90;;;;;;5094388;28;20099;-70
2021/05/29 05:03:36;;;;;;;3.40;2.33;;;12.70;99.90;;;;;;5093827;28;20028;-69
2021/05/29 05:06:02;;;;;;;6.90;2.40;;;12.70;99.90;;;;;;5094343;28;20136;-69
2021/05/29 05:08:28;;;;;;;5.55;3.03;;;12.80;99.90;;;;;;5092164;28;20032;-70
2021/05/29 05:10:55;;;;;;;3.70;1.80;;;12.80;99.90;;;;;;5094361;28;20599;-70
2021/05/29 05:13:22;;;;;;;2.40;1.88;;;12.90;99.90;;;;;;5094161;28;20051;-70
2021/05/29 05:15:49;;;;;;;3.08;2.20;;;12.90;99.90;;;;;;5092629;28;20038;-71
2021/05/29 05:18:14;;;;;;;4.78;2.10;;;12.80;99.90;;;;;;5093281;28;20036;-77
2021/05/29 05:20:41;;;;;;;2.00;1.80;;;13.00;99.90;;;;;;5092516;28;20063;-70
2021/05/29 05:23:07;;;;;;;5.40;2.60;;;12.90;99.90;;;;;;5092919;28;20024;-70
2021/05/29 05:25:33;;;;;;;4.15;2.60;;;12.90;99.90;;;;;;5092585;28;20560;-70
2021/05/29 05:27:59;;;;;;;3.00;2.20;;;13.10;99.90;;;;;;5092388;28;20473;-70
2021/05/29 05:30:27;;;;;;;3.72;2.33;;;13.10;99.90;;;;;;5093253;28;20089;-71
2021/05/29 05:32:53;;;;;;;10.73;2.25;;;13.00;99.90;;;;;;5093890;28;20024;-70
2021/05/29 05:35:21;;;;;;;2.55;2.05;;;13.10;99.90;;;;;;5092886;28;20028;-71
2021/05/29 05:37:47;;;;;;;4.60;2.80;;;13.20;99.90;;;;;;5092196;28;20032;-70
2021/05/29 05:40:14;;;;;;;3.75;2.70;;;13.20;99.90;;;;;;5092308;28;20024;-71
2021/05/29 05:42:40;;;;;;;4.00;2.47;;;13.10;99.90;;;;;;5091880;28;20053;-70
2021/05/29 05:45:07;;;;;;;5.35;2.75;;;13.00;99.90;;;;;;5092817;28;20382;-71
2021/05/29 05:47:33;;;;;;;3.78;2.03;;;13.00;99.90;;;;;;5093065;28;20468;-70
2021/05/29 05:49:59;;;;;;;5.22;2.35;;;13.00;99.90;;;;;;5091583;28;20040;-70
2021/05/29 05:52:25;;;;;;;4.10;2.45;;;13.10;99.90;;;;;;5091249;28;20028;-70
2021/05/29 05:54:50;;;;;;;4.80;2.20;;;13.10;99.90;;;;;;5091979;28;20043;-70
2021/05/29 05:57:16;;;;;;;3.67;2.25;;;13.20;99.90;;;;;;5091260;28;20031;-81
2021/05/29 05:59:42;;;;;;;4.63;2.95;;;13.40;99.90;;;;;;5091630;28;20030;-70
2021/05/29 06:02:08;;;;;;;4.40;2.20;;;13.50;99.90;;;;;;5091877;28;20189;-71
2021/05/29 06:04:34;;;;;;;4.65;2.00;;;13.40;99.90;;;;;;5092360;28;20123;-72
2021/05/29 06:07:00;;;;;;;3.42;1.80;;;13.60;99.90;;;;;;5090797;28;20024;-73
2021/05/29 06:09:28;;;;;;;10.27;2.38;;;13.60;99.90;;;;;;5091767;28;20036;-57
2021/05/29 06:11:54;;;;;;;9.15;2.53;;;14.80;99.90;;;;;;5092165;28;20505;-56
2021/05/29 06:19:54;;;;;;;3.10;1.63;;;15.50;99.90;;;;;;5092115;28;20500;-72
2021/05/29 06:22:19;;;;;;;;;;;15.00;99.90;;;;;;5090380;28;20036;-73
2021/05/29 06:24:45;;;;;;;2.50;1.48;;;14.60;99.90;;;;;;5090427;28;19915;-73
2021/05/29 06:27:11;;;;;;;4.82;1.70;;;14.60;99.90;;;;;;5091136;28;20020;-73
2021/05/29 06:29:36;;;;;;;2.33;1.20;;;14.70;99.90;;;;;;5090366;28;20040;-73
2021/05/29 06:32:02;;;;;;;2.10;1.30;;;14.60;99.90;;;;;;5092611;28;20028;-74
2021/05/29 06:34:28;;;;;;;5.35;1.70;;;14.60;99.90;;;;;;5090071;28;20023;-74
2021/05/29 06:36:54;;;;;;;4.03;1.50;;;14.60;99.90;;;;;;5092136;28;20039;-73
2021/05/29 06:39:20;;;;;;;1.83;1.42;;;14.60;99.90;;;;;;5089752;28;20130;-74
2021/05/29 06:41:46;;;;;;;1.27;1.17;;;14.60;99.90;;;;;;5091970;28;20035;-74
2021/05/29 06:44:13;;;;;;;2.25;1.20;;;14.40;99.90;;;;;;5093384;28;20338;-73
2021/05/29 06:46:42;;;;;;;18.65;2.88;;;14.40;99.90;;;;;;5092139;28;20028;-72
2021/05/29 06:49:08;;;;;;;6.25;1.90;;;14.50;99.90;;;;;;5093576;28;20082;-72
2021/05/29 06:54:09;;;;;;;3.85;1.15;;;14.80;99.90;;;;;;5091984;28;20042;-73
2021/05/29 06:59:19;;;;;;;4.47;0.95;;;15.20;99.90;;;;;;5091463;28;20435;-75
2021/05/29 07:01:45;;;;;;;2.10;1.00;;;15.20;99.90;;;;;;5091118;28;20020;-74
2021/05/29 07:04:11;;;;;;;3.38;1.02;;;15.00;99.90;;;;;;5092233;28;20031;-71
2021/05/29 07:06:36;;;;;;;2.58;0.77;;;15.20;99.90;;;;;;5091770;28;20070;-73
2021/05/29 07:09:04;;;;;;;3.05;1.05;;;15.40;99.90;;;;;;5092037;28;20083;-73
2021/05/29 07:11:32;;;;;;;1.55;0.90;;;15.50;99.80;;;;;;5089560;28;20513;-74
2021/05/29 07:13:57;;;;;;;2.65;1.13;;;15.50;99.70;;;;;;5091510;28;20157;-74
2021/05/29 07:16:23;;;;;;;3.13;0.75;;;15.60;99.90;;;;;;5090259;28;20032;-74
2021/05/29 07:18:49;;;;;;;1.50;0.80;;;15.70;99.90;;;;;;5091002;28;20488;-73
2021/05/29 07:21:17;;;;;;;2.88;1.02;;;15.80;99.60;;;;;;5091160;28;20028;-73
2021/05/29 07:23:44;;;;;;;5.18;1.27;;;15.80;99.60;;;;;;5088691;28;20028;-74
2021/05/29 07:26:10;;;;;;;2.75;0.88;;;15.70;99.30;;;;;;5089475;28;20024;-74
2021/05/29 07:28:36;;;;;;;2.53;1.35;;;15.90;98.90;;;;;;5089921;28;20032;-73
2021/05/29 07:31:02;;;;;;;2.58;0.98;;;15.90;98.70;;;;;;5089188;28;20387;-73
2021/05/29 07:33:28;;;;;;;2.75;0.85;;;15.90;98.90;;;;;;5089763;28;20470;-74
2021/05/29 07:35:54;;;;;;;4.35;1.38;;;16.10;98.70;;;;;;5090192;28;20036;-73
2021/05/29 07:38:22;;;;;;;3.05;1.10;;;16.30;97.80;;;;;;5088676;28;20020;-74
2021/05/29 07:40:48;;;;;;;3.95;1.30;;;16.40;98.00;;;;;;5090304;28;20114;-73
2021/05/29 07:43:13;;;;;;;1.65;0.80;;;16.60;98.00;;;;;;5088810;28;20027;-74
2021/05/29 07:45:39;;;;;;;3.33;0.98;;;16.60;97.90;;;;;;5088720;28;20089;-74
2021/05/29 07:48:05;;;;;;;2.70;1.02;;;16.80;97.50;;;;;;5091858;28;20032;-74
2021/05/29 07:50:31;;;;;;;1.45;0.85;;;16.90;96.60;;;;;;5092273;28;20133;-75
2021/05/29 07:52:57;;;;;;;2.55;0.77;;;16.40;97.20;;;;;;5092633;28;20054;-75
2021/05/29 07:55:22;;;;;;;3.05;1.00;;;16.60;97.70;;;;;;5088423;28;20383;-76
2021/05/29 07:57:48;;;;;;;1.98;0.85;;;16.70;97.60;;;;;;5088636;28;20062;-75
2021/05/29 08:00:21;;;;;;;2.05;0.82;;;17.00;97.60;;;;;;5090208;28;20110;-75
2021/05/29 08:02:47;;;;;;;1.75;0.68;;;17.20;97.40;;;;;;5089892;28;20115;-74
2021/05/29 08:05:18;;;;;;;2.10;1.25;;;17.70;96.30;;;;;;5088592;28;20152;-75
2021/05/29 08:07:44;;;;;;;2.00;0.98;;;17.80;95.60;;;;;;5091784;28;20252;-74
2021/05/29 08:10:11;;;;;;;2.85;0.57;;;18.10;95.20;;;;;;5098615;28;20122;-74
2021/05/29 08:12:37;;;;;;;2.00;0.75;;;17.90;94.30;;;;;;5108104;28;20019;-76
2021/05/29 08:15:06;;;;;;;4.50;0.80;;;18.00;94.70;;;;;;5107276;28;20126;-65
2021/05/29 08:17:31;;;;;;;2.90;0.90;;;18.50;96.70;;;;;;5106396;28;20033;-65
2021/05/29 08:19:57;;;;;;;1.60;0.95;;;18.80;94.60;;;;;;5108011;28;20135;-64
2021/05/29 08:22:23;;;;;;;3.15;0.52;;;19.20;94.70;;;;;;5105913;28;20032;-76
2021/05/29 08:24:50;;;;;;;2.80;0.90;;;19.40;91.30;;;;;;5106121;28;20032;-74
2021/05/29 08:27:15;;;;;;;2.83;0.60;;;19.50;91.40;;;;;;5106664;28;20027;-76
2021/05/29 08:29:41;;;;;;;3.58;0.70;;;19.70;90.20;;;;;;5107381;28;20522;-74
2021/05/29 08:32:07;;;;;;;1.95;0.55;;;19.70;90.40;;;;;;5107304;28;20107;-75
2021/05/29 08:34:32;;;;;;;0.60;0.50;;;19.70;89.40;;;;;;5106165;28;20114;-74
2021/05/29 08:36:58;;;;;;;1.10;0.70;;;19.70;90.40;;;;;;5108092;28;20460;-74
2021/05/29 08:39:24;;;;;;;2.08;1.23;;;20.10;90.40;;;;;;5106923;28;20119;-77
2021/05/29 08:41:50;;;;;;;2.47;0.73;;;20.30;88.30;;;;;;5108304;28;20035;-74
2021/05/29 08:44:16;;;;;;;0.50;0.47;;;20.40;88.30;;;;;;5106508;28;20038;-73
2021/05/29 08:46:42;;;;;;;4.88;0.68;;;20.50;85.10;;;;;;5109042;28;20102;-74
2021/05/29 08:49:08;;;;;;;4.97;1.02;;;20.80;82.90;;;;;;5109459;28;20038;-73
2021/05/29 08:51:34;;;;;;;1.83;0.82;;;21.00;84.70;;;;;;5107228;28;20042;-74
2021/05/29 08:54:01;;;;;;;2.47;0.70;;;21.30;85.10;;;;;;5108158;28;20434;-73
2021/05/29 08:56:28;;;;;;;2.05;0.68;;;21.70;83.30;;;;;;5106906;28;20081;-73
2021/05/29 08:58:54;;;;;;;2.20;0.90;;;21.70;80.80;;;;;;5107776;28;20079;-73
2021/05/29 09:01:22;;;;;;;2.20;0.80;;;21.60;81.50;;;;;;5110146;28;20024;-73
2021/05/29 09:03:54;;;;;;;8.88;1.20;;;21.60;79.80;;;;;;5107875;28;20058;-73
2021/05/29 09:06:40;;;;;;;3.97;0.52;;;21.70;80.10;;;;;;5109682;28;20043;-72
2021/05/29 09:09:11;;;;;;;1.60;0.85;;;21.90;78.30;;;;;;5108048;28;20035;-72
2021/05/29 09:11:52;;;;;;;1.48;0.70;;;21.90;78.10;;;;;;5108877;28;20019;-73
2021/05/29 09:14:24;;;;;;;0.70;0.52;;;21.80;78.60;;;;;;5109884;28;20027;-72
2021/05/29 09:17:11;;;;;;;1.80;0.90;;;22.10;76.60;;;;;;5107241;28;20091;-73
2021/05/29 09:20:05;;;;;;;1.42;0.50;;;21.70;77.50;;;;;;5105947;28;20115;-70
2021/05/29 09:22:34;;;;;;;6.32;0.63;;;21.20;77.70;;;;;;5108134;28;20125;-74
2021/05/29 09:25:12;;;;;;;2.55;1.05;;;20.90;79.40;;;;;;5108418;28;20423;-74
2021/05/29 09:27:58;;;;;;;14.32;2.15;;;20.50;81.20;;;;;;5105213;28;20209;-55
2021/05/29 09:30:44;;;;;;;1.23;0.65;;;20.80;84.60;;;;;;5105661;28;20337;-53
2021/05/29 09:33:09;;;;;;;2.58;0.60;;;21.30;85.10;;;;;;5092008;28;20391;-59
2021/05/29 09:35:35;;;;;;;2.97;0.60;;;21.50;85.10;;;;;;5087234;28;20078;-60
2021/05/29 09:38:05;;;;;;;2.63;0.52;;;22.10;83.90;;;;;;5086833;28;20024;-56
2021/05/29 09:40:32;;;;;;;2.45;0.63;;;22.30;78.10;;;;;;5087369;28;20406;-59
2021/05/29 09:43:04;;;;;;;1.42;0.38;;;21.90;73.80;;;;;;5103061;28;20043;-55
2021/05/29 09:45:31;;;;;;;2.17;0.60;;;22.40;78.10;;;;;;5108197;28;20433;-53
2021/05/29 09:48:19;;;;;;;1.52;0.55;;;22.70;77.20;;;;;;5110659;28;20028;-53
2021/05/29 09:50:58;;;;;;;2.95;0.57;;;23.10;74.80;;;;;;5111473;28;20032;-53
2021/05/29 09:53:26;;;;;;;1.40;0.50;;;22.90;70.60;;;;;;5111759;28;20077;-54
2021/05/29 09:55:52;;;;;;;0.52;0.50;;;23.10;70.20;;;;;;5111822;28;20019;-56
2021/05/29 09:58:18;;;;;;;3.83;0.68;;;23.10;70.00;;;;;;5112528;28;20302;-55
2021/05/29 10:00:46;;;;;;;2.67;0.40;;;23.30;70.80;;;;;;5109099;28;20115;-53
2021/05/29 10:03:13;;;;;;;3.42;1.30;;;23.70;70.00;;;;;;5112362;28;20341;-54
2021/05/29 10:05:47;;;;;;;2.67;0.50;;;23.90;68.30;;;;;;5111221;28;20015;-54
2021/05/29 10:08:15;;;;;;;2.22;0.70;;;23.80;68.30;;;;;;5110431;28;20076;-54
2021/05/29 10:10:41;;;;;;;2.83;0.73;;;24.30;66.50;;;;;;5111306;28;20151;-53
2021/05/29 10:13:07;;;;;;;3.80;0.60;;;24.10;66.30;;;;;;5109398;28;20031;-55
2021/05/29 10:15:33;;;;;;;2.85;0.63;;;24.00;65.10;;;;;;5109798;28;20024;-53
2021/05/29 10:18:02;;;;;;;1.52;0.50;;;23.80;65.10;;;;;;5111736;28;20039;-53
2021/05/29 10:20:28;;;;;;;1.58;0.22;;;23.50;63.80;;;;;;5111261;28;20048;-62
2021/05/29 10:22:55;;;;;;;1.58;0.40;;;23.50;65.70;;;;;;5111041;28;20101;-54
2021/05/29 10:25:21;;;;;;;2.75;0.75;;;23.70;63.70;;;;;;5111239;28;20024;-55
2021/05/29 10:27:53;;;;;;;5.47;0.70;;;24.20;62.60;;;;;;5108250;28;20420;-55
2021/05/29 10:30:20;;;;;;;3.10;0.70;;;24.40;63.60;;;;;;5108987;28;20074;-57
2021/05/29 10:33:12;;;;;;;1.30;0.60;;;24.30;62.40;;;;;;5110597;28;20059;-55
2021/05/29 10:35:39;;;;;;;1.33;0.50;;;24.40;62.20;;;;;;5109158;28;20023;-54
2021/05/29 10:38:06;;;;;;;0.85;0.50;;;24.40;58.90;;;;;;5111411;28;20076;-53
2021/05/29 10:40:37;;;;;;;1.38;0.82;;;24.50;60.10;;;;;;5103742;28;20031;-55
2021/05/29 10:43:19;;;;;;;3.77;0.80;;;24.80;58.60;;;;;;5103923;28;20081;-53
2021/05/29 10:45:50;;;;;;;1.42;0.85;;;25.00;59.70;;;;;;5107476;28;20327;-53
2021/05/29 10:48:21;;;;;;;2.80;0.90;;;24.80;59.20;;;;;;5110612;28;20031;-53
2021/05/29 10:53:47;;;;;;;3.85;0.45;;;24.30;61.30;;;;;;5110083;28;20032;-53
2021/05/29 10:56:18;;;;;;;;;;;24.40;61.90;;;;;;5103617;28;20409;-54
2021/05/29 10:58:58;;;;;;;0.77;0.50;;;24.40;61.60;;;;;;5108507;28;19904;-53
2021/05/29 11:01:45;;;;;;;1.05;0.50;;;24.50;60.50;;;;;;5108371;28;20027;-54
2021/05/29 11:04:17;;;;;;;2.03;0.60;;;25.00;60.40;;;;;;5107752;28;20067;-53
2021/05/29 11:06:58;;;;;;;2.50;0.45;;;25.10;60.50;;;;;;5108108;28;20056;-57
2021/05/29 11:09:24;;;;;;;1.95;0.50;;;25.30;60.10;;;;;;5107946;28;20050;-53
2021/05/29 11:11:54;;;;;;;3.63;0.63;;;25.40;57.60;;;;;;5107020;28;20829;-59
2021/05/29 11:14:30;;;;;;;1.23;0.50;;;25.70;59.80;;;;;;5107004;28;20023;-54
2021/05/29 11:16:57;;;;;;;1.05;0.40;;;25.70;57.50;;;;;;5107913;28;20114;-54
2021/05/29 11:19:31;;;;;;;3.78;0.40;;;25.80;57.10;;;;;;5108454;28;20051;-53
2021/05/29 11:22:12;;;;;;;2.08;0.45;;;25.80;56.50;;;;;;5109592;28;20386;-53
2021/05/29 11:24:44;;;;;;;1.92;1.10;;;25.20;56.00;;;;;;5107886;28;20188;-54
2021/05/29 11:27:13;;;;;;;3.47;0.70;;;24.90;56.90;;;;;;5108207;28;20453;-52
2021/05/29 11:30:01;;;;;;;0.68;0.52;;;24.90;56.00;;;;;;5107579;28;20019;-53
2021/05/29 11:35:24;;;;;;;1.30;0.53;;;25.60;58.50;;;;;;5108520;28;20095;-54
2021/05/29 11:37:57;;;;;;;2.10;0.80;;;26.00;59.20;;;;;;5107262;28;20023;-54
2021/05/29 11:40:37;;;;;;;0.80;0.50;;;25.70;56.20;;;;;;5107751;28;20083;-53
2021/05/29 11:43:02;;;;;;;3.90;0.98;;;25.20;56.80;;;;;;5107998;28;20079;-53
2021/05/29 11:50:41;;;;;;;4.07;0.40;;;25.00;57.10;;;;;;5296318;22;20231;-53
2021/05/29 11:53:08;;;;;;;2.05;0.38;;;25.00;54.90;;;;;;5031714;28;20120;-57
2021/05/29 11:55:54;;;;;;;0.85;0.50;;;25.20;55.70;;;;;;5048944;28;20037;-55
2021/05/29 11:58:20;;;;;;;3.33;0.60;;;25.50;55.60;;;;;;5049510;28;20035;-53
2021/05/29 12:00:56;;;;;;;2.25;0.45;;;25.40;54.90;;;;;;5029822;28;20025;-51
2021/05/29 12:03:43;;;;;;;1.67;0.40;;;25.70;54.20;;;;;;5047595;28;20044;-54
2021/05/29 12:06:10;;;;;;;6.63;0.98;;;26.00;56.60;;;;;;5030770;28;20025;-55
2021/05/29 12:08:52;;;;;;;0.80;0.47;;;26.20;55.30;;;;;;5062170;28;20021;-51
2021/05/29 12:11:18;;;;;;;7.13;0.50;;;26.00;52.00;;;;;;5068358;28;20106;-51
2021/05/29 12:13:57;;;;;;;1.52;0.70;;;25.90;53.00;;;;;;5047202;28;20047;-52
2021/05/29 12:16:31;;;;;;;4.10;0.65;;;26.10;53.60;;;;;;5050718;28;20024;-51
2021/05/29 12:18:58;;;;;;;15.65;1.70;;;26.10;55.10;;;;;;5068440;28;20210;-53
2021/05/29 12:21:38;;;;;;;4.93;0.82;;;26.30;54.20;;;;;;5050193;28;20063;-54
2021/05/29 12:24:04;;;;;;;3.58;0.95;;;26.70;53.10;;;;;;5049767;28;20111;-54
2021/05/29 12:26:30;;;;;;;2.50;1.05;;;26.40;51.90;;;;;;5069764;28;20522;-54
2021/05/29 12:28:56;;;;;;;4.00;0.60;;;26.30;53.20;;;;;;5069162;28;20108;-53
2021/05/29 12:31:22;;;;;;;3.50;0.40;;;26.50;53.00;;;;;;5068082;28;20453;-54
2021/05/29 12:34:08;;;;;;;3.70;0.63;;;26.20;51.90;;;;;;5049497;28;20046;-53
2021/05/29 12:36:34;;;;;;;2.75;0.60;;;26.40;52.70;;;;;;5066852;28;20081;-59
2021/05/29 12:39:01;;;;;;;1.48;0.52;;;26.30;52.00;;;;;;5050431;28;20047;-54
2021/05/29 12:41:37;;;;;;;3.30;0.50;;;26.50;51.90;;;;;;5068309;28;20431;-53
2021/05/29 12:44:06;;;;;;;2.28;0.75;;;26.50;49.20;;;;;;5049076;28;20021;-55
2021/05/29 12:46:32;;;;;;;1.00;0.43;;;26.00;49.20;;;;;;5049198;28;20020;-52
2021/05/29 12:49:16;;;;;;;3.85;0.28;;;26.20;48.70;;;;;;5065510;28;20020;-53
2021/05/29 12:51:50;;;;;;;0.75;0.30;;;25.90;50.90;;;;;;5049212;28;20064;-53
2021/05/29 12:54:17;;;;;;;3.70;0.95;;;25.90;47.90;;;;;;5068907;28;20021;-53
2021/05/29 12:56:54;;;;;;;1.90;0.52;;;25.50;49.20;;;;;;5067897;28;20025;-52
2021/05/29 12:59:25;;;;;;;5.25;0.47;;;25.20;48.80;;;;;;5067229;28;20769;-54
2021/05/29 13:07:42;;;;;;;1.85;0.40;;;25.80;49.10;;;;;;5067804;28;20471;-53
2021/05/29 13:12:57;;;;;;;1.95;0.30;;;25.80;48.50;;;;;;5067798;28;20031;-53
2021/05/29 13:15:23;;;;;;;1.13;0.40;;;25.90;48.60;;;;;;5041230;28;20055;-51
2021/05/29 13:17:49;;;;;;;6.10;0.70;;;25.90;49.80;;;;;;5042578;28;20162;-53
2021/05/29 13:20:22;;;;;;;1.85;0.50;;;25.90;50.20;;;;;;5056746;28;21826;-56
2021/05/29 13:22:59;;;;;;;9.43;1.00;;;26.00;50.10;;;;;;5041521;28;20131;-55
2021/05/29 13:25:24;;;;;;;3.45;0.40;;;25.90;47.70;;;;;;5060311;28;20100;-53